createdAt,value
2018-12-01T00:00:22.687Z,98545.91
2018-12-01T00:02:51.421Z,98549.77
2018-12-01T00:05:19.809Z,98552.05
2018-12-01T00:07:48.707Z,98554.36
2018-12-01T00:10:17.158Z,98550.27
2018-12-01T00:12:45.578Z,98552.30
2018-12-01T00:15:15.631Z,98548.45
2018-12-01T00:17:43.926Z,98547.38
2018-12-01T00:20:13.562Z,98545.08
2018-12-01T00:22:42.012Z,98543.77
2018-12-01T00:25:10.389Z,98546.30
2018-12-01T00:27:38.692Z,98548.56
2018-12-01T00:30:12.060Z,98551.95
2018-12-01T00:32:40.475Z,98545.44
2018-12-01T00:35:09.962Z,98548.28
2018-12-01T00:37:38.329Z,98547.19
2018-12-01T00:40:21.980Z,98550.56
2018-12-01T00:42:50.348Z,98548.81
2018-12-01T00:45:21.621Z,98551.53
2018-12-01T00:47:51.062Z,98543.95
2018-12-01T00:50:20.607Z,98546.95
2018-12-01T00:52:49.677Z,98556.57
2018-12-01T00:55:18.785Z,98552.58
2018-12-01T00:57:47.167Z,98551.63
2018-12-01T01:00:20.130Z,98546.10
2018-12-01T01:02:51.031Z,98550.66
2018-12-01T01:05:20.193Z,98551.03
2018-12-01T01:07:48.545Z,98553.09
2018-12-01T01:10:16.901Z,98554.96
2018-12-01T01:12:45.220Z,98560.87
2018-12-01T01:15:14.675Z,98564.52
2018-12-01T01:17:43.003Z,98561.27
2018-12-01T01:20:12.508Z,98563.09
2018-12-01T01:22:40.910Z,98564.91
2018-12-01T01:25:10.355Z,98560.94
2018-12-01T01:27:38.757Z,98556.83
2018-12-01T01:30:11.736Z,98552.87
2018-12-01T01:32:40.173Z,98559.97
2018-12-01T01:35:08.520Z,98561.45
2018-12-01T01:37:36.832Z,98563.83
2018-12-01T01:40:06.985Z,98569.28
2018-12-01T01:42:35.398Z,98571.09
2018-12-01T01:45:03.745Z,98568.64
2018-12-01T01:47:32.203Z,98563.73
2018-12-01T01:50:00.501Z,98561.94
2018-12-01T01:52:28.828Z,98568.80
2018-12-01T01:54:57.174Z,98575.66
2018-12-01T01:57:25.527Z,98565.67
2018-12-01T01:59:53.842Z,98564.11
2018-12-01T02:02:22.211Z,98563.38
2018-12-01T02:04:50.561Z,98562.54
2018-12-01T02:07:18.953Z,98571.95
2018-12-01T02:09:47.293Z,98565.56
2018-12-01T02:12:15.604Z,98568.45
2018-12-01T02:14:43.933Z,98561.95
2018-12-01T02:17:12.371Z,98556.89
2018-12-01T02:19:40.693Z,98562.79
2018-12-01T02:22:09.150Z,98559.81
2018-12-01T02:24:37.912Z,98555.80
2018-12-01T02:27:06.760Z,98545.81
2018-12-01T02:29:35.126Z,98543.77
2018-12-01T02:32:03.627Z,98547.63
2018-12-01T02:34:32.007Z,98548.95
2018-12-01T02:37:00.442Z,98555.45
2018-12-01T02:39:28.844Z,98550.30
2018-12-01T02:41:57.177Z,98551.98
2018-12-01T02:44:36.908Z,98551.63
2018-12-01T02:47:08.939Z,98554.16
2018-12-01T02:49:37.666Z,98557.77
2018-12-01T02:52:06.829Z,98558.62
2018-12-01T02:54:35.376Z,98564.77
2018-12-01T02:57:03.804Z,98563.80
2018-12-01T02:59:32.254Z,98565.84
2018-12-01T03:02:00.603Z,98576.60
2018-12-01T03:04:28.905Z,98566.09
2018-12-01T03:06:57.298Z,98571.87
2018-12-01T03:09:25.648Z,98566.33
2018-12-01T03:11:54.013Z,98564.03
2018-12-01T03:14:22.401Z,98559.46
2018-12-01T03:16:50.748Z,98562.59
2018-12-01T03:19:19.077Z,98555.48
2018-12-01T03:21:47.572Z,98550.67
2018-12-01T03:24:15.868Z,98554.04
2018-12-01T03:26:44.198Z,98551.27
2018-12-01T03:29:12.551Z,98555.09
2018-12-01T03:31:40.865Z,98560.50
2018-12-01T03:34:09.155Z,98550.14
2018-12-01T03:36:37.512Z,98538.58
2018-12-01T03:39:08.868Z,98548.78
2018-12-01T03:41:37.681Z,98544.44
2018-12-01T03:44:06.656Z,98542.50
2018-12-01T03:46:34.969Z,98549.24
2018-12-01T03:49:03.287Z,98557.14
2018-12-01T03:51:31.601Z,98559.34
2018-12-01T03:54:00.045Z,98550.88
2018-12-01T03:56:28.603Z,98553.87
2018-12-01T03:58:57.014Z,98549.00
2018-12-01T04:01:25.348Z,98555.36
2018-12-01T04:03:53.708Z,98555.98
2018-12-01T04:06:22.053Z,98555.50
2018-12-01T04:08:50.513Z,98555.21
2018-12-01T04:11:18.868Z,98556.09
2018-12-01T04:13:47.272Z,98555.87
2018-12-01T04:16:15.669Z,98552.97
2018-12-01T04:18:44.028Z,98560.41
2018-12-01T04:21:12.337Z,98554.67
2018-12-01T04:23:40.653Z,98562.13
2018-12-01T04:26:09.037Z,98563.50
2018-12-01T04:28:37.414Z,98561.73
2018-12-01T04:31:05.934Z,98564.62
2018-12-01T04:33:34.442Z,98566.15
2018-12-01T04:36:02.773Z,98569.05
2018-12-01T04:38:31.152Z,98570.02
2018-12-01T04:40:59.504Z,98579.35
2018-12-01T04:43:27.918Z,98583.81
2018-12-01T04:45:56.287Z,98583.85
2018-12-01T04:48:24.673Z,98584.94
2018-12-01T04:50:52.991Z,98579.33
2018-12-01T04:53:21.322Z,98581.62
2018-12-01T04:55:49.629Z,98590.78
2018-12-01T04:58:17.947Z,98582.95
2018-12-01T05:00:46.262Z,98584.23
2018-12-01T05:03:14.623Z,98585.23
2018-12-01T05:05:42.989Z,98593.19
2018-12-01T05:08:11.365Z,98594.75
2018-12-01T05:10:39.662Z,98596.20
2018-12-01T05:13:08.041Z,98592.70
2018-12-01T05:15:37.149Z,98592.87
2018-12-01T05:18:06.122Z,98590.41
2018-12-01T05:20:34.444Z,98588.73
2018-12-01T05:23:02.793Z,98594.16
2018-12-01T05:25:31.116Z,98594.27
2018-12-01T05:27:59.434Z,98588.05
2018-12-01T05:30:27.871Z,98598.28
2018-12-01T05:32:56.268Z,98594.03
2018-12-01T05:35:25.374Z,98597.52
2018-12-01T05:37:53.751Z,98599.44
2018-12-01T05:40:22.413Z,98592.09
2018-12-01T05:42:50.798Z,98600.25
2018-12-01T05:45:20.169Z,98603.12
2018-12-01T05:47:48.859Z,98611.67
2018-12-01T05:50:25.525Z,98607.98
2018-12-01T05:52:54.853Z,98607.10
2018-12-01T05:55:23.260Z,98604.45
2018-12-01T05:57:51.695Z,98604.45
2018-12-01T06:00:20.386Z,98601.44
2018-12-01T06:02:48.766Z,98593.37
2018-12-01T06:05:17.117Z,98610.82
2018-12-01T06:07:45.763Z,98611.91
2018-12-01T06:10:18.017Z,98616.12
2018-12-01T06:12:47.063Z,98615.39
2018-12-01T06:15:16.204Z,98615.39
2018-12-01T06:17:44.552Z,98615.23
2018-12-01T06:20:18.268Z,98612.70
2018-12-01T06:22:46.612Z,98612.81
2018-12-01T06:25:16.203Z,98611.61
2018-12-01T06:27:44.547Z,98607.52
2018-12-01T06:30:17.934Z,98603.66
2018-12-01T06:32:46.924Z,98612.33
2018-12-01T06:35:15.317Z,98613.30
2018-12-01T06:37:43.618Z,98612.09
2018-12-01T06:40:20.449Z,98612.92
2018-12-01T06:42:49.320Z,98617.62
2018-12-01T06:45:18.261Z,98624.14
2018-12-01T06:47:46.601Z,98623.41
2018-12-01T06:50:16.002Z,98620.16
2018-12-01T06:52:44.442Z,98621.25
2018-12-01T06:55:13.712Z,98624.50
2018-12-01T06:57:42.540Z,98626.78
2018-12-01T07:00:13.242Z,98619.92
2018-12-01T07:02:43.100Z,98620.89
2018-12-01T07:05:12.534Z,98622.88
2018-12-01T07:07:41.142Z,98622.74
2018-12-01T07:10:11.836Z,98630.81
2018-12-01T07:12:42.316Z,98635.40
2018-12-01T07:15:13.769Z,98632.87
2018-12-01T07:17:43.961Z,98628.77
2018-12-01T07:20:12.881Z,98633.81
2018-12-01T07:22:41.292Z,98634.02
2018-12-01T07:25:09.914Z,98635.20
2018-12-01T07:27:38.208Z,98638.93
2018-12-01T07:30:11.144Z,98642.80
2018-12-01T07:32:39.550Z,98632.61
2018-12-01T07:35:08.704Z,98629.73
2018-12-01T07:37:37.287Z,98633.95
2018-12-01T07:40:10.651Z,98629.37
2018-12-01T07:42:39.094Z,98630.83
2018-12-01T07:45:09.961Z,98623.66
2018-12-01T07:47:38.395Z,98626.92
2018-12-01T07:50:10.719Z,98636.11
2018-12-01T07:52:39.233Z,98635.59
2018-12-01T07:55:07.701Z,98631.66
2018-12-01T07:57:36.031Z,98627.45
2018-12-01T08:00:06.281Z,98618.77
2018-12-01T08:02:34.653Z,98624.06
2018-12-01T08:05:03.434Z,98626.59
2018-12-01T08:07:31.856Z,98619.62
2018-12-01T08:10:00.322Z,98622.50
2018-12-01T08:12:28.695Z,98616.72
2018-12-01T08:14:58.349Z,98619.98
2018-12-01T08:17:29.250Z,98611.06
2018-12-01T08:19:57.969Z,98610.95
2018-12-01T08:22:27.017Z,98609.80
2018-12-01T08:24:55.720Z,98609.56
2018-12-01T08:27:24.076Z,98608.23
2018-12-01T08:29:52.676Z,98615.11
2018-12-01T08:32:21.725Z,98604.74
2018-12-01T08:34:50.105Z,98605.38
2018-12-01T08:37:19.489Z,98613.45
2018-12-01T08:39:50.563Z,98622.13
2018-12-01T08:42:18.894Z,98616.34
2018-12-01T08:44:47.541Z,98611.64
2018-12-01T08:47:15.905Z,98620.44
2018-12-01T08:49:44.527Z,98622.25
2018-12-01T08:52:12.985Z,98619.84
2018-12-01T08:54:41.594Z,98634.91
2018-12-01T08:57:10.075Z,98632.25
2018-12-01T08:59:39.534Z,98637.34
2018-12-01T09:02:11.798Z,98638.17
2018-12-01T09:04:40.338Z,98636.51
2018-12-01T09:07:09.375Z,98629.98
2018-12-01T09:09:37.721Z,98631.78
2018-12-01T09:12:06.855Z,98624.54
2018-12-01T09:14:35.146Z,98627.32
2018-12-01T09:17:03.487Z,98625.87
2018-12-01T09:19:31.769Z,98622.63
2018-12-01T09:22:00.113Z,98622.27
2018-12-01T09:24:28.418Z,98618.88
2018-12-01T09:26:56.761Z,98625.15
2018-12-01T09:29:25.236Z,98629.47
2018-12-01T09:31:54.016Z,98630.70
2018-12-01T09:34:22.358Z,98631.89
2018-12-01T09:36:50.863Z,98636.34
2018-12-01T09:39:21.651Z,98631.74
2018-12-01T09:41:50.262Z,98632.23
2018-12-01T09:44:18.631Z,98633.29
2018-12-01T09:46:47.082Z,98620.39
2018-12-01T09:49:15.552Z,98617.38
2018-12-01T09:51:44.038Z,98609.97
2018-12-01T09:54:12.477Z,98616.61
2018-12-01T09:56:40.808Z,98615.63
2018-12-01T09:59:09.127Z,98613.95
2018-12-01T10:01:37.464Z,98611.29
2018-12-01T10:04:06.295Z,98602.35
2018-12-01T10:06:34.702Z,98603.68
2018-12-01T10:09:03.161Z,98603.06
2018-12-01T10:11:31.516Z,98599.47
2018-12-01T10:13:59.834Z,98601.41
2018-12-01T10:16:28.405Z,98601.38
2018-12-01T10:18:56.779Z,98605.72
2018-12-01T10:21:25.109Z,98601.41
2018-12-01T10:23:53.576Z,98613.92
2018-12-01T10:26:21.969Z,98598.27
2018-12-01T10:28:50.306Z,98598.30
2018-12-01T10:31:18.804Z,98611.91
2018-12-01T10:33:47.179Z,98610.69
2018-12-01T10:36:15.637Z,98609.81
2018-12-01T10:38:43.952Z,98595.71
2018-12-01T10:41:12.294Z,98597.20
2018-12-01T10:43:40.662Z,98597.52
2018-12-01T10:46:08.984Z,98597.78
2018-12-01T10:48:37.363Z,98594.87
2018-12-01T10:51:05.987Z,98595.23
2018-12-01T10:53:34.337Z,98606.34
2018-12-01T10:56:02.748Z,98600.80
2018-12-01T10:58:31.096Z,98601.16
2018-12-01T11:01:04.811Z,98602.12
2018-12-01T11:03:38.373Z,98600.90
2018-12-01T11:06:11.102Z,98596.10
2018-12-01T11:08:39.578Z,98600.18
2018-12-01T11:11:07.982Z,98591.27
2018-12-01T11:13:36.401Z,98591.86
2018-12-01T11:16:06.074Z,98594.16
2018-12-01T11:18:34.454Z,98590.66
2018-12-01T11:21:02.853Z,98584.59
2018-12-01T11:23:31.230Z,98587.52
2018-12-01T11:25:59.570Z,98583.14
2018-12-01T11:28:28.224Z,98593.67
2018-12-01T11:30:56.757Z,98587.97
2018-12-01T11:33:25.137Z,98575.88
2018-12-01T11:35:54.395Z,98585.77
2018-12-01T11:38:22.735Z,98583.37
2018-12-01T11:40:51.242Z,98575.13
2018-12-01T11:43:19.638Z,98575.49
2018-12-01T11:45:48.153Z,98571.67
2018-12-01T11:48:16.594Z,98567.42
2018-12-01T11:50:44.966Z,98563.92
2018-12-01T11:53:13.858Z,98564.15
2018-12-01T11:55:42.174Z,98555.43
2018-12-01T11:58:10.632Z,98546.97
2018-12-01T12:00:39.187Z,98550.39
2018-12-01T12:03:07.688Z,98548.22
2018-12-01T12:05:36.116Z,98541.92
2018-12-01T12:08:19.375Z,98543.16
2018-12-01T12:10:47.702Z,98537.16
2018-12-01T12:13:16.083Z,98540.52
2018-12-01T12:15:44.731Z,98541.35
2018-12-01T12:18:13.275Z,98546.47
2018-12-01T12:20:41.761Z,98538.80
2018-12-01T12:23:10.231Z,98537.73
2018-12-01T12:25:38.529Z,98543.29
2018-12-01T12:28:07.252Z,98541.46
2018-12-01T12:30:35.914Z,98543.07
2018-12-01T12:33:04.378Z,98549.58
2018-12-01T12:35:32.800Z,98543.78
2018-12-01T12:38:01.360Z,98543.55
2018-12-01T12:40:29.796Z,98542.92
2018-12-01T12:43:00.049Z,98546.17
2018-12-01T12:45:28.524Z,98540.10
2018-12-01T12:47:56.990Z,98535.77
2018-12-01T12:50:25.336Z,98540.95
2018-12-01T12:52:54.764Z,98538.20
2018-12-01T12:55:27.276Z,98532.34
2018-12-01T12:57:55.802Z,98532.44
2018-12-01T13:00:25.016Z,98524.60
2018-12-01T13:02:57.589Z,98522.66
2018-12-01T13:05:33.908Z,98531.34
2018-12-01T13:08:02.698Z,98523.14
2018-12-01T13:10:31.221Z,98510.52
2018-12-01T13:12:59.695Z,98515.48
2018-12-01T13:15:28.120Z,98511.98
2018-12-01T13:17:56.550Z,98515.55
2018-12-01T13:20:25.458Z,98511.14
2018-12-01T13:22:55.297Z,98516.01
2018-12-01T13:25:23.622Z,98512.51
2018-12-01T13:27:53.782Z,98512.34
2018-12-01T13:30:24.608Z,98509.98
2018-12-01T13:32:53.095Z,98498.16
2018-12-01T13:35:21.577Z,98498.55
2018-12-01T13:37:50.057Z,98497.71
2018-12-01T13:40:18.395Z,98491.07
2018-12-01T13:42:47.169Z,98497.11
2018-12-01T13:45:17.429Z,98495.86
2018-12-01T13:47:47.076Z,98497.36
2018-12-01T13:50:17.257Z,98494.52
2018-12-01T13:52:50.182Z,98489.70
2018-12-01T13:55:18.622Z,98490.41
2018-12-01T13:57:47.600Z,98480.75
2018-12-01T14:00:16.777Z,98494.66
2018-12-01T14:02:45.145Z,98498.64
2018-12-01T14:05:13.773Z,98494.13
2018-12-01T14:07:42.130Z,98491.55
2018-12-01T14:10:13.702Z,98493.64
2018-12-01T14:12:42.409Z,98486.77
2018-12-01T14:15:15.349Z,98487.13
2018-12-01T14:17:43.777Z,98489.38
2018-12-01T14:20:13.464Z,98488.66
2018-12-01T14:22:41.917Z,98492.44
2018-12-01T14:25:11.245Z,98483.32
2018-12-01T14:27:40.398Z,98486.33
2018-12-01T14:30:11.999Z,98493.59
2018-12-01T14:32:40.408Z,98484.08
2018-12-01T14:35:26.004Z,98487.17
2018-12-01T14:37:58.000Z,98492.10
2018-12-01T14:40:26.476Z,98494.44
2018-12-01T14:42:54.824Z,98498.52
2018-12-01T14:45:23.221Z,98492.36
2018-12-01T14:47:51.599Z,98483.63
2018-12-01T14:50:20.105Z,98470.84
2018-12-01T14:52:48.575Z,98477.88
2018-12-01T14:55:17.734Z,98479.79
2018-12-01T14:57:47.438Z,98474.73
2018-12-01T15:00:18.042Z,98475.14
2018-12-01T15:02:46.746Z,98474.42
2018-12-01T15:05:15.195Z,98484.30
2018-12-01T15:07:43.811Z,98485.77
2018-12-01T15:10:17.197Z,98487.80
2018-12-01T15:12:45.606Z,98498.95
2018-12-01T15:15:15.182Z,98490.54
2018-12-01T15:17:43.730Z,98487.27
2018-12-01T15:20:13.294Z,98486.03
2018-12-01T15:22:42.096Z,98488.11
2018-12-01T15:25:13.033Z,98485.84
2018-12-01T15:27:41.479Z,98489.26
2018-12-01T15:30:28.052Z,98490.49
2018-12-01T15:33:14.595Z,98485.31
2018-12-01T15:35:44.477Z,98482.08
2018-12-01T15:38:14.250Z,98479.09
2018-12-01T15:40:43.429Z,98469.00
2018-12-01T15:43:11.915Z,98467.44
2018-12-01T15:45:40.308Z,98461.68
2018-12-01T15:48:08.808Z,98466.50
2018-12-01T15:50:37.131Z,98461.22
2018-12-01T15:53:08.013Z,98460.98
2018-12-01T15:55:36.430Z,98457.39
2018-12-01T15:58:04.853Z,98456.93
2018-12-01T16:00:33.234Z,98454.75
2018-12-01T16:03:01.744Z,98453.81
2018-12-01T16:05:30.091Z,98452.22
2018-12-01T16:07:59.286Z,98447.18
2018-12-01T16:10:28.447Z,98446.92
2018-12-01T16:12:58.433Z,98441.27
2018-12-01T16:15:29.424Z,98434.62
2018-12-01T16:17:57.961Z,98432.69
2018-12-01T16:20:26.655Z,98427.28
2018-12-01T16:22:55.055Z,98423.17
2018-12-01T16:25:24.480Z,98418.38
2018-12-01T16:27:52.797Z,98416.70
2018-12-01T16:30:26.828Z,98412.81
2018-12-01T16:32:57.374Z,98398.13
2018-12-01T16:35:25.739Z,98398.02
2018-12-01T16:37:54.121Z,98392.95
2018-12-01T16:40:29.371Z,98388.84
2018-12-01T16:42:59.111Z,98384.15
2018-12-01T16:45:27.709Z,98379.20
2018-12-01T16:47:56.233Z,98384.50
2018-12-01T16:50:24.653Z,98384.89
2018-12-01T16:52:52.991Z,98390.16
2018-12-01T16:55:21.475Z,98382.67
2018-12-01T16:57:49.927Z,98385.09
2018-12-01T17:00:19.585Z,98381.47
2018-12-01T17:02:50.419Z,98377.39
2018-12-01T17:05:19.874Z,98368.92
2018-12-01T17:07:48.663Z,98363.25
2018-12-01T17:10:18.489Z,98364.55
2018-12-01T17:12:48.002Z,98360.38
2018-12-01T17:15:17.629Z,98356.88
2018-12-01T17:17:46.388Z,98358.47
2018-12-01T17:20:16.256Z,98352.06
2018-12-01T17:22:49.256Z,98348.08
2018-12-01T17:25:18.142Z,98340.97
2018-12-01T17:27:47.356Z,98342.03
2018-12-01T17:30:27.518Z,98338.89
2018-12-01T17:32:56.987Z,98338.67
2018-12-01T17:35:30.247Z,98333.23
2018-12-01T17:38:01.095Z,98330.68
2018-12-01T17:41:32.745Z,98323.91
2018-12-01T17:44:04.102Z,98322.98
2018-12-01T17:46:33.618Z,98323.91
2018-12-01T17:49:02.200Z,98322.98
2018-12-01T17:51:30.612Z,98319.22
2018-12-01T17:54:17.899Z,98324.27
2018-12-01T17:56:47.103Z,98325.11
2018-12-01T17:59:15.464Z,98325.02
2018-12-01T18:01:43.851Z,98327.05
2018-12-01T18:04:12.719Z,98333.91
2018-12-01T18:06:42.355Z,98328.86
2018-12-01T18:09:10.849Z,98330.64
2018-12-01T18:11:39.706Z,98321.52
2018-12-01T18:14:10.084Z,98323.20
2018-12-01T18:16:38.703Z,98320.87
2018-12-01T18:19:16.271Z,98314.36
2018-12-01T18:21:45.241Z,98314.85
2018-12-01T18:24:13.571Z,98315.95
2018-12-01T18:26:41.934Z,98316.31
2018-12-01T18:29:10.383Z,98317.95
2018-12-01T18:31:38.841Z,98318.44
2018-12-01T18:34:12.585Z,98324.10
2018-12-01T18:36:41.105Z,98325.69
2018-12-01T18:39:13.453Z,98333.03
2018-12-01T18:41:42.031Z,98326.30
2018-12-01T18:44:10.584Z,98329.63
2018-12-01T18:46:39.026Z,98328.92
2018-12-01T18:49:07.755Z,98326.49
2018-12-01T18:51:36.228Z,98316.84
2018-12-01T18:54:05.043Z,98315.52
2018-12-01T18:56:33.400Z,98308.75
2018-12-01T18:59:01.761Z,98305.88
2018-12-01T19:01:30.185Z,98305.27
2018-12-01T19:03:58.573Z,98299.86
2018-12-01T19:06:27.008Z,98287.17
2018-12-01T19:08:55.521Z,98288.40
2018-12-01T19:11:23.949Z,98287.25
2018-12-01T19:13:52.399Z,98286.41
2018-12-01T19:16:20.758Z,98280.80
2018-12-01T19:18:49.286Z,98276.06
2018-12-01T19:21:17.645Z,98270.36
2018-12-01T19:23:46.504Z,98261.69
2018-12-01T19:26:15.076Z,98258.19
2018-12-01T19:28:43.561Z,98257.22
2018-12-01T19:31:11.895Z,98264.91
2018-12-01T19:33:40.532Z,98258.33
2018-12-01T19:36:09.107Z,98256.11
2018-12-01T19:38:37.577Z,98247.53
2018-12-01T19:41:06.363Z,98247.66
2018-12-01T19:43:34.888Z,98248.02
2018-12-01T19:46:04.280Z,98244.61
2018-12-01T19:48:32.674Z,98243.77
2018-12-01T19:51:01.100Z,98229.79
2018-12-01T19:53:29.611Z,98225.94
2018-12-01T19:55:58.106Z,98226.21
2018-12-01T19:58:28.893Z,98229.00
2018-12-01T20:00:58.246Z,98229.44
2018-12-01T20:03:28.062Z,98232.22
2018-12-01T20:05:56.413Z,98227.00
2018-12-01T20:08:27.476Z,98229.42
2018-12-01T20:10:58.373Z,98224.34
2018-12-01T20:13:57.745Z,98218.80
2018-12-01T20:16:35.001Z,98214.77
2018-12-01T20:19:04.776Z,98207.07
2018-12-01T20:21:33.168Z,98202.87
2018-12-01T20:24:01.610Z,98195.91
2018-12-01T20:26:29.953Z,98191.17
2018-12-01T20:28:58.406Z,98187.30
2018-12-01T20:31:27.087Z,98180.03
2018-12-01T20:33:58.239Z,98175.70
2018-12-01T20:36:31.547Z,98162.02
2018-12-01T20:39:10.487Z,98157.19
2018-12-01T20:41:38.809Z,98142.94
2018-12-01T20:44:07.812Z,98143.77
2018-12-01T20:46:36.161Z,98133.78
2018-12-01T20:49:04.593Z,98124.03
2018-12-01T20:51:33.371Z,98125.02
2018-12-01T20:54:01.939Z,98127.66
2018-12-01T20:56:32.872Z,98127.17
2018-12-01T20:59:01.243Z,98124.34
2018-12-01T21:01:29.604Z,98116.03
2018-12-01T21:03:58.999Z,98115.69
2018-12-01T21:06:27.370Z,98102.41
2018-12-01T21:08:55.984Z,98105.83
2018-12-01T21:11:24.316Z,98107.02
2018-12-01T21:13:53.298Z,98100.55
2018-12-01T21:16:22.818Z,98097.38
2018-12-01T21:18:51.826Z,98099.89
2018-12-01T21:21:20.176Z,98097.27
2018-12-01T21:23:48.678Z,98092.77
2018-12-01T21:26:17.105Z,98081.03
2018-12-01T21:28:45.434Z,98088.92
2018-12-01T21:31:13.793Z,98080.54
2018-12-01T21:33:42.290Z,98081.17
2018-12-01T21:36:11.028Z,98082.63
2018-12-01T21:38:39.654Z,98072.92
2018-12-01T21:41:08.018Z,98072.71
2018-12-01T21:43:36.501Z,98068.88
2018-12-01T21:46:04.995Z,98069.56
2018-12-01T21:48:33.568Z,98071.52
2018-12-01T21:51:01.984Z,98055.80
2018-12-01T21:53:30.373Z,98052.38
2018-12-01T21:55:58.718Z,98048.33
2018-12-01T21:58:27.082Z,98047.63
2018-12-01T22:00:57.823Z,98044.98
2018-12-01T22:03:26.883Z,98040.36
2018-12-01T22:06:00.162Z,98029.45
2018-12-01T22:08:28.888Z,98029.25
2018-12-01T22:10:59.123Z,98021.98
2018-12-01T22:13:27.930Z,98023.31
2018-12-01T22:15:56.650Z,98018.84
2018-12-01T22:18:25.653Z,98012.47
2018-12-01T22:20:54.165Z,98000.80
2018-12-01T22:23:22.445Z,97999.77
2018-12-01T22:25:50.845Z,97993.27
2018-12-01T22:28:19.197Z,97990.41
2018-12-01T22:30:49.334Z,97988.65
2018-12-01T22:33:20.490Z,97982.36
2018-12-01T22:35:49.193Z,97977.11
2018-12-01T22:38:17.512Z,97974.74
2018-12-01T22:40:46.709Z,97977.97
2018-12-01T22:43:15.180Z,97979.30
2018-12-01T22:45:43.683Z,97976.07
2018-12-01T22:48:13.778Z,97971.73
2018-12-01T22:50:43.680Z,97961.81
2018-12-01T22:53:12.134Z,97968.80
2018-12-01T22:55:41.600Z,97971.05
2018-12-01T22:58:12.156Z,97963.22
2018-12-01T23:00:48.640Z,97963.22
2018-12-01T23:03:17.184Z,97967.67
2018-12-01T23:05:45.672Z,97960.34
2018-12-01T23:08:15.331Z,97956.30
2018-12-01T23:10:43.700Z,97954.83
2018-12-01T23:13:12.102Z,97963.91
2018-12-01T23:15:40.520Z,97958.32
2018-12-01T23:18:13.201Z,97945.05
2018-12-01T23:20:43.099Z,97946.78
2018-12-01T23:23:11.418Z,97948.25
2018-12-01T23:25:39.861Z,97940.28
2018-12-01T23:28:08.764Z,97951.41
2018-12-01T23:30:37.672Z,97933.59
2018-12-01T23:33:11.562Z,97929.46
2018-12-01T23:35:40.650Z,97931.48
2018-12-01T23:38:09.125Z,97930.73
2018-12-01T23:40:38.721Z,97933.05
2018-12-01T23:43:07.116Z,97929.75
2018-12-01T23:45:36.055Z,97934.97
2018-12-01T23:48:04.760Z,97921.58
2018-12-01T23:50:33.513Z,97921.78
2018-12-01T23:53:03.574Z,97921.09
2018-12-01T23:55:31.953Z,97904.87
2018-12-01T23:58:00.301Z,97907.58
